createdAt,value
2024-02-16T00:02:14.396Z,8.57
2024-02-16T00:04:44.552Z,7.93
2024-02-16T00:07:13.098Z,7.53
2024-02-16T00:09:41.447Z,8.07
2024-02-16T00:12:10.206Z,7.50
2024-02-16T00:14:38.724Z,8.03
2024-02-16T00:17:08.242Z,8.63
2024-02-16T00:19:36.694Z,7.77
2024-02-16T00:22:08.382Z,8.43
2024-02-16T00:24:37.554Z,8.07
2024-02-16T00:27:07.367Z,7.83
2024-02-16T00:29:35.944Z,9.13
2024-02-16T00:32:03.378Z,8.37
2024-02-16T00:34:31.794Z,8.20
2024-02-16T00:37:00.383Z,8.40
2024-02-16T00:39:30.839Z,8.37
2024-02-16T00:42:01.971Z,8.30
2024-02-16T00:44:30.390Z,7.63
2024-02-16T00:46:59.682Z,7.90
2024-02-16T00:49:31.037Z,8.13
2024-02-16T00:51:59.728Z,8.10
2024-02-16T00:54:30.154Z,7.97
2024-02-16T00:57:03.470Z,8.77
2024-02-16T00:59:35.018Z,8.03
2024-02-16T01:02:03.556Z,8.73
2024-02-16T01:04:32.046Z,8.07
2024-02-16T01:07:00.581Z,8.17
2024-02-16T01:09:30.480Z,7.00
2024-02-16T01:11:58.891Z,7.27
2024-02-16T01:14:27.241Z,8.10
2024-02-16T01:16:55.571Z,7.80
2024-02-16T01:19:28.940Z,8.10
2024-02-16T01:21:58.885Z,8.13
2024-02-16T01:24:28.020Z,8.80
2024-02-16T01:26:58.448Z,8.57
2024-02-16T01:29:27.612Z,7.70
2024-02-16T01:31:55.906Z,8.83
2024-02-16T01:34:24.423Z,8.60
2024-02-16T01:36:53.016Z,8.57
2024-02-16T01:39:26.605Z,8.40
2024-02-16T01:41:55.171Z,8.37
2024-02-16T01:44:25.271Z,8.73
2024-02-16T01:46:53.865Z,8.60
2024-02-16T01:49:25.736Z,8.43
2024-02-16T01:51:54.399Z,8.90
2024-02-16T01:54:22.993Z,7.60
2024-02-16T01:56:52.321Z,8.70
2024-02-16T01:59:20.886Z,8.90
2024-02-16T02:01:50.595Z,8.10
2024-02-16T02:04:19.069Z,8.47
2024-02-16T02:06:47.997Z,7.53
2024-02-16T02:09:16.640Z,7.93
2024-02-16T02:11:45.045Z,7.27
2024-02-16T02:14:13.754Z,7.80
2024-02-16T02:16:50.956Z,7.27
2024-02-16T02:19:25.622Z,7.70
2024-02-16T02:21:54.058Z,8.53
2024-02-16T02:24:27.149Z,8.27
2024-02-16T02:26:55.799Z,7.87
2024-02-16T02:29:24.153Z,8.33
2024-02-16T02:31:52.398Z,7.93
2024-02-16T02:34:21.794Z,6.97
2024-02-16T02:36:50.380Z,8.17
2024-02-16T02:39:18.694Z,8.63
2024-02-16T02:41:48.484Z,9.13
2024-02-16T02:44:22.823Z,8.73
2024-02-16T02:46:51.322Z,9.83
2024-02-16T02:49:19.864Z,11.30
2024-02-16T02:51:48.264Z,9.90
2024-02-16T02:54:16.663Z,9.27
2024-02-16T02:56:49.000Z,9.07
2024-02-16T02:59:17.563Z,9.20
2024-02-16T03:01:46.689Z,8.30
2024-02-16T03:04:15.171Z,8.53
2024-02-16T03:06:43.759Z,8.70
2024-02-16T03:09:13.862Z,8.87
2024-02-16T03:11:45.295Z,9.20
2024-02-16T03:14:15.108Z,7.80
2024-02-16T03:16:43.452Z,8.07
2024-02-16T03:19:19.330Z,7.67
2024-02-16T03:21:49.865Z,7.53
2024-02-16T03:24:18.413Z,8.23
2024-02-16T03:26:46.897Z,7.97
2024-02-16T03:29:16.767Z,7.50
2024-02-16T03:31:45.290Z,8.00
2024-02-16T03:34:14.017Z,8.20
2024-02-16T03:36:42.630Z,8.47
2024-02-16T03:39:11.150Z,8.20
2024-02-16T03:41:39.633Z,7.87
2024-02-16T03:44:08.083Z,8.10
2024-02-16T03:46:44.381Z,7.90
2024-02-16T03:49:13.411Z,8.40
2024-02-16T03:51:41.946Z,8.07
2024-02-16T03:54:10.399Z,7.40
2024-02-16T03:56:38.853Z,7.80
2024-02-16T03:59:08.898Z,8.33
2024-02-16T04:01:40.173Z,7.97
2024-02-16T04:04:08.514Z,8.23
2024-02-16T04:06:37.653Z,8.23
2024-02-16T04:09:07.297Z,7.47
2024-02-16T04:11:36.462Z,8.00
2024-02-16T04:14:05.151Z,7.17
2024-02-16T04:16:33.561Z,7.40
2024-02-16T04:19:03.469Z,7.53
2024-02-16T04:21:32.028Z,8.10
2024-02-16T04:24:00.505Z,7.20
2024-02-16T04:26:29.311Z,7.63
2024-02-16T04:28:57.737Z,8.10
2024-02-16T04:31:26.143Z,7.90
2024-02-16T04:33:55.180Z,8.20
2024-02-16T04:36:25.067Z,8.10
2024-02-16T04:38:53.576Z,7.87
2024-02-16T04:41:22.769Z,7.83
2024-02-16T04:43:51.383Z,7.23
2024-02-16T04:46:22.444Z,8.57
2024-02-16T04:48:51.003Z,8.60
2024-02-16T04:51:19.393Z,9.03
2024-02-16T04:53:49.515Z,7.63
2024-02-16T04:56:17.827Z,8.37
2024-02-16T04:58:46.262Z,8.80
2024-02-16T05:01:15.889Z,8.40
2024-02-16T05:03:44.337Z,8.87
2024-02-16T05:06:13.196Z,8.13
2024-02-16T05:08:41.689Z,7.90
2024-02-16T05:11:11.420Z,8.10
2024-02-16T05:13:40.585Z,7.67
2024-02-16T05:16:10.362Z,8.67
2024-02-16T05:18:39.264Z,7.53
2024-02-16T05:21:08.505Z,7.77
2024-02-16T05:23:37.157Z,7.03
2024-02-16T05:26:06.424Z,8.47
2024-02-16T05:28:36.435Z,8.07
2024-02-16T05:31:16.910Z,8.40
2024-02-16T05:33:50.616Z,8.23
2024-02-16T05:36:21.701Z,7.67
2024-02-16T05:38:50.631Z,7.80
2024-02-16T05:41:20.173Z,8.20
2024-02-16T05:43:50.731Z,7.50
2024-02-16T05:46:20.107Z,7.60
2024-02-16T05:48:48.500Z,7.53
2024-02-16T05:51:16.960Z,8.00
2024-02-16T05:53:46.605Z,7.77
2024-02-16T05:56:14.953Z,8.13
2024-02-16T05:58:43.251Z,8.97
2024-02-16T06:01:14.043Z,8.20
2024-02-16T06:03:44.119Z,8.33
2024-02-16T06:06:12.599Z,8.30
2024-02-16T06:08:41.571Z,9.40
2024-02-16T06:11:10.139Z,9.33
2024-02-16T06:13:38.602Z,8.60
2024-02-16T06:16:09.631Z,8.53
2024-02-16T06:18:40.031Z,8.90
2024-02-16T06:21:08.602Z,8.37
2024-02-16T06:23:36.969Z,8.47
2024-02-16T06:26:05.546Z,8.80
2024-02-16T06:28:33.858Z,9.43
2024-02-16T06:31:02.284Z,8.33
2024-02-16T06:33:30.788Z,8.50
2024-02-16T06:36:00.606Z,8.50
2024-02-16T06:38:28.915Z,8.83
2024-02-16T06:40:57.232Z,8.70
2024-02-16T06:43:25.580Z,9.30
2024-02-16T06:45:56.365Z,8.27
2024-02-16T06:48:24.940Z,9.70
2024-02-16T06:50:54.830Z,9.17
2024-02-16T06:53:24.785Z,8.97
2024-02-16T06:55:53.111Z,9.03
2024-02-16T06:58:21.381Z,8.87
2024-02-16T07:00:53.731Z,8.80
2024-02-16T07:03:22.422Z,9.17
2024-02-16T07:05:50.857Z,10.40
2024-02-16T07:08:19.421Z,9.83
2024-02-16T07:10:49.870Z,9.33
2024-02-16T07:13:18.667Z,9.67
2024-02-16T07:15:47.266Z,10.73
2024-02-16T07:18:15.866Z,9.93
2024-02-16T07:20:44.266Z,10.67
2024-02-16T07:23:13.381Z,8.80
2024-02-16T07:25:41.763Z,9.30
2024-02-16T07:28:11.732Z,9.73
2024-02-16T07:30:43.461Z,10.27
2024-02-16T07:33:12.616Z,10.40
2024-02-16T07:35:41.017Z,10.47
2024-02-16T07:38:09.320Z,10.00
2024-02-16T07:40:37.687Z,9.50
2024-02-16T07:43:06.641Z,11.80
2024-02-16T07:45:36.646Z,11.70
2024-02-16T07:48:06.872Z,11.27
2024-02-16T07:50:35.668Z,11.50
2024-02-16T07:53:04.057Z,11.47
2024-02-16T07:55:32.392Z,12.23
2024-02-16T07:58:01.233Z,12.07
2024-02-16T08:00:30.371Z,11.10
2024-02-16T08:03:00.284Z,11.27
2024-02-16T08:05:28.948Z,11.67
2024-02-16T08:07:57.508Z,11.20
2024-02-16T08:10:26.848Z,11.37
2024-02-16T08:12:57.874Z,10.93
2024-02-16T08:15:27.108Z,11.97
2024-02-16T08:17:56.106Z,11.93
2024-02-16T08:20:26.015Z,11.13
2024-02-16T08:22:55.261Z,11.30
2024-02-16T08:25:23.612Z,11.83
2024-02-16T08:27:52.088Z,10.83
2024-02-16T08:30:23.788Z,12.90
2024-02-16T08:32:52.398Z,15.80
2024-02-16T08:35:21.291Z,14.97
2024-02-16T08:37:51.034Z,14.97
2024-02-16T08:40:19.452Z,13.57
2024-02-16T08:42:48.605Z,12.90
2024-02-16T08:45:18.770Z,12.97
2024-02-16T08:47:50.487Z,12.53
2024-02-16T08:50:21.378Z,13.27
2024-02-16T08:52:51.268Z,13.13
2024-02-16T08:55:19.658Z,13.10
2024-02-16T08:57:48.102Z,13.13
2024-02-16T09:00:18.058Z,13.30
2024-02-16T09:02:47.610Z,12.97
2024-02-16T09:05:16.070Z,12.87
2024-02-16T09:07:44.425Z,12.40
2024-02-16T09:10:15.834Z,13.50
2024-02-16T09:12:44.378Z,13.07
2024-02-16T09:15:13.181Z,12.70
2024-02-16T09:17:41.745Z,12.80
2024-02-16T09:20:13.125Z,12.60
2024-02-16T09:22:47.055Z,12.50
2024-02-16T09:25:17.639Z,12.93
2024-02-16T09:27:46.718Z,13.63
2024-02-16T09:30:16.420Z,12.80
2024-02-16T09:32:44.914Z,13.33
2024-02-16T09:35:14.250Z,12.43
2024-02-16T09:37:42.897Z,13.03
2024-02-16T09:40:14.816Z,13.33
2024-02-16T09:42:44.767Z,13.53
2024-02-16T09:45:17.263Z,13.40
2024-02-16T09:47:54.392Z,13.33
2024-02-16T09:50:29.706Z,13.57
2024-02-16T09:52:59.962Z,14.43
2024-02-16T09:55:34.643Z,14.13
2024-02-16T09:58:06.251Z,13.97
2024-02-16T10:00:34.796Z,13.33
2024-02-16T10:03:03.329Z,13.90
2024-02-16T10:05:32.571Z,12.63
2024-02-16T10:08:00.930Z,12.17
2024-02-16T10:10:32.922Z,11.97
2024-02-16T10:13:06.364Z,12.23
2024-02-16T10:15:35.427Z,13.13
2024-02-16T10:18:05.538Z,11.60
2024-02-16T10:20:36.844Z,11.83
2024-02-16T10:23:10.270Z,12.30
2024-02-16T10:25:40.503Z,12.67
2024-02-16T10:28:13.621Z,11.37
2024-02-16T10:30:45.266Z,11.33
2024-02-16T10:33:15.007Z,10.77
2024-02-16T10:35:45.482Z,11.03
2024-02-16T10:38:15.024Z,10.70
2024-02-16T10:40:45.823Z,10.50
2024-02-16T10:43:17.951Z,10.40
2024-02-16T10:45:48.543Z,8.83
2024-02-16T10:48:18.032Z,8.63
2024-02-16T10:50:47.004Z,8.63
2024-02-16T10:53:20.846Z,8.87
2024-02-16T10:55:49.562Z,7.43
2024-02-16T10:58:19.888Z,8.37
2024-02-16T11:00:53.338Z,7.87
2024-02-16T11:03:26.862Z,8.30
2024-02-16T11:05:56.426Z,9.17
2024-02-16T11:08:29.044Z,7.97
2024-02-16T11:10:59.187Z,8.23
2024-02-16T11:13:30.482Z,8.50
2024-02-16T11:16:03.799Z,8.07
2024-02-16T11:18:33.411Z,8.03
2024-02-16T11:21:06.707Z,8.10
2024-02-16T11:23:37.549Z,7.73
2024-02-16T11:26:10.242Z,7.00
2024-02-16T11:28:42.374Z,7.33
2024-02-16T11:31:11.407Z,7.87
2024-02-16T11:33:46.503Z,6.57
2024-02-16T11:36:15.483Z,7.03
2024-02-16T11:38:44.156Z,7.10
2024-02-16T11:41:12.673Z,7.23
2024-02-16T11:43:43.127Z,6.93
2024-02-16T11:46:18.837Z,6.93
2024-02-16T11:48:49.345Z,6.73
2024-02-16T11:51:19.373Z,7.03
2024-02-16T11:53:57.736Z,7.07
2024-02-16T11:56:26.710Z,6.43
2024-02-16T11:58:57.073Z,7.13
2024-02-16T12:01:25.982Z,7.20
2024-02-16T12:03:54.481Z,7.27
2024-02-16T12:06:26.909Z,7.40
2024-02-16T12:08:55.533Z,6.93
2024-02-16T12:11:25.957Z,6.97
2024-02-16T12:13:56.943Z,6.57
2024-02-16T12:16:27.821Z,7.17
2024-02-16T12:19:06.249Z,7.03
2024-02-16T12:21:34.884Z,6.40
2024-02-16T12:24:03.474Z,6.70
2024-02-16T12:26:31.800Z,6.17
2024-02-16T12:29:01.891Z,6.70
2024-02-16T12:31:30.656Z,7.47
2024-02-16T12:33:59.367Z,6.50
2024-02-16T12:36:28.366Z,6.63
2024-02-16T12:38:56.860Z,6.47
2024-02-16T12:41:25.236Z,6.97
2024-02-16T12:43:54.577Z,6.37
2024-02-16T12:46:24.264Z,6.53
2024-02-16T12:48:53.557Z,6.97
2024-02-16T12:51:22.583Z,7.43
2024-02-16T12:53:51.049Z,6.97
2024-02-16T12:56:19.707Z,6.03
2024-02-16T12:58:48.203Z,6.73
2024-02-16T13:01:25.718Z,7.07
2024-02-16T13:03:56.508Z,6.77
2024-02-16T13:06:28.051Z,6.30
2024-02-16T13:08:58.056Z,6.20
2024-02-16T13:11:26.596Z,6.07
2024-02-16T13:13:55.524Z,7.20
2024-02-16T13:16:24.044Z,11.43
2024-02-16T13:18:52.824Z,8.00
2024-02-16T13:21:22.754Z,7.43
2024-02-16T13:23:51.400Z,6.37
2024-02-16T13:26:19.805Z,6.20
2024-02-16T13:28:48.330Z,6.53
2024-02-16T13:31:17.138Z,6.47
2024-02-16T13:33:45.686Z,6.10
2024-02-16T13:36:14.050Z,5.90
2024-02-16T13:38:43.839Z,6.07
2024-02-16T13:41:12.200Z,6.00
2024-02-16T13:43:40.608Z,5.80
2024-02-16T13:46:09.097Z,6.97
2024-02-16T13:48:38.870Z,6.10
2024-02-16T13:51:08.393Z,6.00
2024-02-16T13:53:38.141Z,6.00
2024-02-16T13:56:09.730Z,7.03
2024-02-16T13:58:39.111Z,6.43
2024-02-16T14:01:07.742Z,6.33
2024-02-16T14:03:37.957Z,6.83
2024-02-16T14:06:09.152Z,6.93
2024-02-16T14:08:37.673Z,6.27
2024-02-16T14:11:07.752Z,6.43
2024-02-16T14:13:36.078Z,6.17
2024-02-16T14:16:04.528Z,6.50
2024-02-16T14:18:35.493Z,7.47
2024-02-16T14:21:05.754Z,6.60
2024-02-16T14:23:34.582Z,7.80
2024-02-16T14:26:03.206Z,7.23
2024-02-16T14:28:32.951Z,6.90
2024-02-16T14:31:01.572Z,6.17
2024-02-16T14:33:34.274Z,5.87
2024-02-16T14:36:04.466Z,6.07
2024-02-16T14:38:33.228Z,5.67
2024-02-16T14:41:05.083Z,5.97
2024-02-16T14:43:35.460Z,6.87
2024-02-16T14:46:05.372Z,7.37
2024-02-16T14:48:34.191Z,6.33
2024-02-16T14:51:03.418Z,5.83
2024-02-16T14:53:33.999Z,6.23
2024-02-16T14:56:04.298Z,6.60
2024-02-16T14:58:34.312Z,6.70
2024-02-16T15:01:02.857Z,6.83
2024-02-16T15:03:31.919Z,6.30
2024-02-16T15:06:00.483Z,6.73
2024-02-16T15:08:29.199Z,7.00
2024-02-16T15:10:57.579Z,6.03
2024-02-16T15:13:27.016Z,6.37
2024-02-16T15:15:56.736Z,6.30
2024-02-16T15:18:25.499Z,7.27
2024-02-16T15:20:55.472Z,7.10
2024-02-16T15:23:24.891Z,7.90
2024-02-16T15:25:53.336Z,7.27
2024-02-16T15:28:21.881Z,7.67
2024-02-16T15:30:50.258Z,7.80
2024-02-16T15:33:20.473Z,7.87
2024-02-16T15:35:48.882Z,7.13
2024-02-16T15:38:17.314Z,6.60
2024-02-16T15:40:45.780Z,6.90
2024-02-16T15:43:14.250Z,8.03
2024-02-16T15:45:43.363Z,7.50
2024-02-16T15:48:13.422Z,8.93
2024-02-16T15:50:43.890Z,8.33
2024-02-16T15:53:12.730Z,7.00
2024-02-16T15:55:43.572Z,8.23
2024-02-16T15:58:12.241Z,11.87
2024-02-16T16:00:41.040Z,10.30
2024-02-16T16:03:10.842Z,10.87
2024-02-16T16:05:39.883Z,10.30
2024-02-16T16:08:10.001Z,8.37
2024-02-16T16:10:38.529Z,7.60
2024-02-16T16:13:08.597Z,6.47
2024-02-16T16:15:36.950Z,8.67
2024-02-16T16:18:06.473Z,9.07
2024-02-16T16:20:34.918Z,7.53
2024-02-16T16:23:03.844Z,7.37
2024-02-16T16:25:33.574Z,8.13
2024-02-16T16:28:01.988Z,8.13
2024-02-16T16:30:30.785Z,8.53
2024-02-16T16:32:59.333Z,8.07
2024-02-16T16:35:33.400Z,7.63
2024-02-16T16:38:02.383Z,7.17
2024-02-16T16:40:30.852Z,6.90
2024-02-16T16:43:00.592Z,6.80
2024-02-16T16:45:30.381Z,7.13
2024-02-16T16:48:01.610Z,9.03
2024-02-16T16:50:32.004Z,7.87
2024-02-16T16:53:00.580Z,14.50
2024-02-16T16:55:29.226Z,19.00
2024-02-16T16:57:58.880Z,12.70
2024-02-16T17:00:27.522Z,10.57
2024-02-16T17:02:57.043Z,9.43
2024-02-16T17:05:25.336Z,9.43
2024-02-16T17:07:54.288Z,10.40
2024-02-16T17:10:22.923Z,14.03
2024-02-16T17:12:51.443Z,8.57
2024-02-16T17:15:21.459Z,8.63
2024-02-16T17:17:53.063Z,7.73
2024-02-16T17:20:25.611Z,8.33
2024-02-16T17:22:55.761Z,9.37
2024-02-16T17:25:25.506Z,9.33
2024-02-16T17:27:54.219Z,12.00
2024-02-16T17:30:24.288Z,9.43
2024-02-16T17:32:52.915Z,10.47
2024-02-16T17:35:21.525Z,11.73
2024-02-16T17:37:54.094Z,11.83
2024-02-16T17:40:22.652Z,13.00
2024-02-16T17:42:51.078Z,12.40
2024-02-16T17:45:20.126Z,14.63
2024-02-16T17:47:49.995Z,13.10
2024-02-16T17:50:19.209Z,11.80
2024-02-16T17:52:47.655Z,15.90
2024-02-16T17:55:16.191Z,27.20
2024-02-16T17:57:44.753Z,22.80
2024-02-16T18:00:17.459Z,20.27
2024-02-16T18:02:48.301Z,19.13
2024-02-16T18:05:19.573Z,13.63
2024-02-16T18:07:48.523Z,23.07
2024-02-16T18:10:17.710Z,14.87
2024-02-16T18:12:46.095Z,13.23
2024-02-16T18:15:14.717Z,11.97
2024-02-16T18:17:43.466Z,12.07
2024-02-16T18:20:14.624Z,11.60
2024-02-16T18:22:44.339Z,12.13
2024-02-16T18:25:12.629Z,12.63
2024-02-16T18:27:41.101Z,10.13
2024-02-16T18:30:11.597Z,12.20
2024-02-16T18:32:40.061Z,16.00
2024-02-16T18:35:09.394Z,15.03
2024-02-16T18:37:37.922Z,14.40
2024-02-16T18:40:10.741Z,12.60
2024-02-16T18:42:39.633Z,11.47
2024-02-16T18:45:10.343Z,11.60
2024-02-16T18:47:39.993Z,11.47
2024-02-16T18:50:10.875Z,10.37
2024-02-16T18:52:39.530Z,10.83
2024-02-16T18:55:10.194Z,10.50
2024-02-16T18:57:38.814Z,10.97
2024-02-16T19:00:09.850Z,10.77
2024-02-16T19:02:43.089Z,10.20
2024-02-16T19:05:12.028Z,11.50
2024-02-16T19:07:40.400Z,13.93
2024-02-16T19:10:12.095Z,10.97
2024-02-16T19:12:40.668Z,13.97
2024-02-16T19:15:11.009Z,12.57
2024-02-16T19:17:39.550Z,12.43
2024-02-16T19:20:09.429Z,12.10
2024-02-16T19:22:37.874Z,11.47
2024-02-16T19:25:07.641Z,12.00
2024-02-16T19:27:37.440Z,11.63
2024-02-16T19:30:07.832Z,12.13
2024-02-16T19:32:36.353Z,10.83
2024-02-16T19:35:06.430Z,9.83
2024-02-16T19:37:35.115Z,13.17
2024-02-16T19:40:03.436Z,9.57
2024-02-16T19:42:31.799Z,11.33
2024-02-16T19:45:01.633Z,10.07
2024-02-16T19:47:30.361Z,9.57
2024-02-16T19:49:58.708Z,10.33
2024-02-16T19:52:27.219Z,9.80
2024-02-16T19:54:59.023Z,10.03
2024-02-16T19:57:27.972Z,10.90
2024-02-16T19:59:56.718Z,10.30
2024-02-16T20:02:26.537Z,8.80
2024-02-16T20:05:03.116Z,9.23
2024-02-16T20:07:37.805Z,10.00
2024-02-16T20:10:09.378Z,9.43
2024-02-16T20:12:37.822Z,9.77
2024-02-16T20:15:07.254Z,9.63
2024-02-16T20:17:37.564Z,10.33
2024-02-16T20:20:07.428Z,9.73
2024-02-16T20:22:35.950Z,8.80
2024-02-16T20:25:08.276Z,9.30
2024-02-16T20:27:37.883Z,9.20
2024-02-16T20:30:08.534Z,10.33
2024-02-16T20:32:40.395Z,11.10
2024-02-16T20:35:10.542Z,10.70
2024-02-16T20:37:39.009Z,10.73
2024-02-16T20:40:09.451Z,10.03
2024-02-16T20:42:39.547Z,10.50
2024-02-16T20:45:08.942Z,10.93
2024-02-16T20:47:40.909Z,12.50
2024-02-16T20:50:11.107Z,10.77
2024-02-16T20:52:39.565Z,10.93
2024-02-16T20:55:09.210Z,10.43
2024-02-16T20:57:37.578Z,10.23
2024-02-16T21:00:09.746Z,9.70
2024-02-16T21:02:40.191Z,10.13
2024-02-16T21:05:09.720Z,9.70
2024-02-16T21:07:38.209Z,10.37
2024-02-16T21:10:07.793Z,9.87
2024-02-16T21:12:36.109Z,9.83
2024-02-16T21:15:05.242Z,10.00
2024-02-16T21:17:33.583Z,10.23
2024-02-16T21:20:03.948Z,9.67
2024-02-16T21:22:34.800Z,9.70
2024-02-16T21:25:09.016Z,8.70
2024-02-16T21:27:37.368Z,9.67
2024-02-16T21:30:07.512Z,9.60
2024-02-16T21:32:35.921Z,9.43
2024-02-16T21:35:07.077Z,8.73
2024-02-16T21:37:36.302Z,9.70
2024-02-16T21:40:05.048Z,8.67
2024-02-16T21:42:33.375Z,9.07
2024-02-16T21:45:01.889Z,9.10
2024-02-16T21:47:30.291Z,9.13
2024-02-16T21:49:58.734Z,9.00
2024-02-16T21:52:28.412Z,9.37
2024-02-16T21:54:56.879Z,9.47
2024-02-16T21:57:25.384Z,9.23
2024-02-16T21:59:53.929Z,9.57
2024-02-16T22:02:22.296Z,9.40
2024-02-16T22:04:52.067Z,9.53
2024-02-16T22:07:20.604Z,9.00
2024-02-16T22:09:50.457Z,8.80
2024-02-16T22:12:20.564Z,8.83
2024-02-16T22:14:48.937Z,9.47
2024-02-16T22:17:17.282Z,10.00
2024-02-16T22:19:45.725Z,11.30
2024-02-16T22:22:15.733Z,10.40
2024-02-16T22:24:44.443Z,9.60
2024-02-16T22:27:14.229Z,9.83
2024-02-16T22:29:42.506Z,11.07
2024-02-16T22:32:17.148Z,10.20
2024-02-16T22:34:47.234Z,10.73
2024-02-16T22:37:15.665Z,10.80
2024-02-16T22:39:44.033Z,9.43
2024-02-16T22:42:13.822Z,10.10
2024-02-16T22:44:42.457Z,9.90
2024-02-16T22:47:10.764Z,9.57
2024-02-16T22:49:39.273Z,10.03
2024-02-16T22:52:08.021Z,9.80
2024-02-16T22:54:36.574Z,9.63
2024-02-16T22:57:05.275Z,9.33
2024-02-16T22:59:35.084Z,8.63
2024-02-16T23:02:03.440Z,9.43
2024-02-16T23:04:31.842Z,8.67
2024-02-16T23:07:00.378Z,9.50
2024-02-16T23:09:28.867Z,8.30
2024-02-16T23:11:57.246Z,8.30
2024-02-16T23:14:28.513Z,7.97
2024-02-16T23:16:58.312Z,7.83
2024-02-16T23:19:27.104Z,7.00
2024-02-16T23:21:56.358Z,8.20
2024-02-16T23:24:24.770Z,7.80
2024-02-16T23:26:53.586Z,7.57
2024-02-16T23:29:26.259Z,7.80
2024-02-16T23:31:55.558Z,8.07
2024-02-16T23:34:25.305Z,7.80
2024-02-16T23:36:53.673Z,8.10
2024-02-16T23:39:27.386Z,8.47
2024-02-16T23:41:55.788Z,7.80
2024-02-16T23:44:24.144Z,7.87
2024-02-16T23:46:54.001Z,6.70
2024-02-16T23:49:36.065Z,7.40
2024-02-16T23:52:05.019Z,7.53
2024-02-16T23:54:33.395Z,7.07
2024-02-16T23:57:02.211Z,7.27
2024-02-16T23:59:30.648Z,7.53
